Time,TemperatureF,DewpointF,PressureIn,WindDirection,WindDirectionDegrees,WindSpeedMPH,WindSpeedGustMPH,Humidity,HourlyPrecipIn,Conditions,Clouds,dailyrainin,SolarRadiationWatts/m^2,SoftwareType,DateUTC
2013-07-11 00:11:00,76.0,22.0,-100.00,SSW,205,5.0,9.0,13,0.00,,,0.00,0.000000,,2013-07-11 06:11:00,
2013-07-11 00:22:00,76.0,22.0,-100.00,SSW,205,5.0,9.0,13,0.00,,,0.00,0.000000,,2013-07-11 06:22:00,
2013-07-11 00:32:00,76.0,22.0,-100.00,SSW,205,5.0,9.0,13,0.00,,,0.00,0.000000,,2013-07-11 06:32:00,
2013-07-11 00:43:00,76.0,22.0,-100.00,SSW,205,5.0,9.0,13,0.00,,,0.00,0.000000,,2013-07-11 06:43:00,
2013-07-11 01:12:00,77.0,24.0,-100.00,SSW,192,11.0,17.0,14,0.00,,,0.00,0.000000,,2013-07-11 07:12:00,
2013-07-11 01:22:00,77.0,24.0,-100.00,SSW,192,11.0,17.0,14,0.00,,,0.00,0.000000,,2013-07-11 07:22:00,
2013-07-11 01:32:00,77.0,24.0,-100.00,SSW,192,11.0,17.0,14,0.00,,,0.00,0.000000,,2013-07-11 07:32:00,
2013-07-11 01:45:00,77.0,24.0,-100.00,SSW,192,11.0,17.0,14,0.00,,,0.00,0.000000,,2013-07-11 07:45:00,
2013-07-11 02:11:00,76.0,38.0,-100.00,South,189,11.0,21.0,25,0.00,,,0.00,0.000000,,2013-07-11 08:11:00,
2013-07-11 02:34:00,76.0,38.0,-100.00,South,189,11.0,21.0,25,0.00,,,0.00,0.000000,,2013-07-11 08:34:00,
2013-07-11 02:43:00,76.0,38.0,-100.00,South,189,11.0,21.0,25,0.00,,,0.00,0.000000,,2013-07-11 08:43:00,
2013-07-11 03:12:00,75.0,41.0,-100.00,SSW,193,15.0,26.0,29,0.00,,,0.00,0.000000,,2013-07-11 09:12:00,
2013-07-11 03:21:00,75.0,41.0,-100.00,SSW,193,15.0,26.0,29,0.00,,,0.00,0.000000,,2013-07-11 09:21:00,
2013-07-11 03:33:00,75.0,41.0,-100.00,SSW,193,15.0,26.0,29,0.00,,,0.00,0.000000,,2013-07-11 09:33:00,
2013-07-11 03:43:00,75.0,41.0,-100.00,SSW,193,15.0,26.0,29,0.00,,,0.00,0.000000,,2013-07-11 09:43:00,
2013-07-11 04:12:00,75.0,42.0,-100.00,SSW,197,14.0,28.0,31,0.00,,,0.00,0.000000,,2013-07-11 10:12:00,
2013-07-11 04:22:00,75.0,42.0,-100.00,SSW,197,14.0,28.0,31,0.00,,,0.00,0.000000,,2013-07-11 10:22:00,
2013-07-11 04:33:00,75.0,42.0,-100.00,SSW,197,14.0,28.0,31,0.00,,,0.00,0.000000,,2013-07-11 10:33:00,
2013-07-11 04:42:00,75.0,42.0,-100.00,SSW,197,14.0,28.0,31,0.00,,,0.00,0.000000,,2013-07-11 10:42:00,
2013-07-11 05:12:00,74.0,43.0,-100.00,SSW,209,10.0,27.0,33,0.00,,,-99.99,0.000000,,2013-07-11 11:12:00,
2013-07-11 05:22:00,74.0,43.0,-100.00,SSW,209,10.0,27.0,33,0.00,,,-99.99,0.000000,,2013-07-11 11:22:00,
2013-07-11 05:32:00,74.0,43.0,-100.00,SSW,209,10.0,27.0,33,0.00,,,-99.99,0.000000,,2013-07-11 11:32:00,
2013-07-11 05:43:00,74.0,43.0,-100.00,SSW,209,10.0,27.0,33,0.00,,,-99.99,0.000000,,2013-07-11 11:43:00,
2013-07-11 06:12:00,72.0,44.0,-100.00,South,185,7.0,18.0,36,0.00,,,-99.99,0.000000,,2013-07-11 12:12:00,
2013-07-11 06:22:00,72.0,44.0,-100.00,South,185,7.0,18.0,36,0.00,,,-99.99,0.000000,,2013-07-11 12:22:00,
2013-07-11 06:33:00,72.0,44.0,-100.00,South,185,7.0,18.0,36,0.00,,,-99.99,0.000000,,2013-07-11 12:33:00,
2013-07-11 06:43:00,72.0,44.0,-100.00,South,185,7.0,18.0,36,0.00,,,-99.99,0.000000,,2013-07-11 12:43:00,
2013-07-11 07:23:00,72.0,44.0,-100.00,SSE,167,7.0,14.0,36,0.00,,,-99.99,20.000000,,2013-07-11 13:23:00,
2013-07-11 07:34:00,72.0,44.0,-100.00,SSE,167,7.0,14.0,36,0.00,,,-99.99,20.000000,,2013-07-11 13:34:00,
2013-07-11 07:45:00,72.0,44.0,-100.00,SSE,167,7.0,14.0,36,0.00,,,-99.99,20.000000,,2013-07-11 13:45:00,
2013-07-11 08:15:00,73.0,44.0,-100.00,South,185,5.0,12.0,36,0.00,,,0.00,66.000000,,2013-07-11 14:15:00,
2013-07-11 08:23:00,73.0,44.0,-100.00,South,185,5.0,12.0,36,0.00,,,0.00,66.000000,,2013-07-11 14:23:00,
2013-07-11 08:35:00,73.0,44.0,-100.00,South,185,5.0,12.0,36,0.00,,,0.00,66.000000,,2013-07-11 14:35:00,
2013-07-11 08:45:00,73.0,44.0,-100.00,South,185,5.0,12.0,36,0.00,,,0.00,66.000000,,2013-07-11 14:45:00,
2013-07-11 09:13:00,79.0,44.0,-100.00,South,191,4.0,12.0,29,0.00,,,0.00,284.000000,,2013-07-11 15:13:00,
2013-07-11 09:36:00,79.0,44.0,-100.00,South,191,4.0,12.0,29,0.00,,,0.00,284.000000,,2013-07-11 15:36:00,
2013-07-11 09:45:00,79.0,44.0,-100.00,South,191,4.0,12.0,29,0.00,,,0.00,284.000000,,2013-07-11 15:45:00,
2013-07-11 10:24:00,83.0,44.0,-100.00,SSW,195,5.0,13.0,25,0.00,,,0.00,434.000000,,2013-07-11 16:24:00,
2013-07-11 10:34:00,83.0,44.0,-100.00,SSW,195,5.0,13.0,25,0.00,,,0.00,434.000000,,2013-07-11 16:34:00,
2013-07-11 10:45:00,83.0,44.0,-100.00,SSW,195,5.0,13.0,25,0.00,,,0.00,434.000000,,2013-07-11 16:45:00,
2013-07-11 11:26:00,86.0,45.0,-100.00,South,189,7.0,16.0,24,0.00,,,0.00,810.000000,,2013-07-11 17:26:00,
2013-07-11 11:37:00,86.0,45.0,-100.00,South,189,7.0,16.0,24,0.00,,,0.00,810.000000,,2013-07-11 17:37:00,
2013-07-11 11:45:00,86.0,45.0,-100.00,South,189,7.0,16.0,24,0.00,,,0.00,810.000000,,2013-07-11 17:45:00,
2013-07-11 12:14:00,88.0,44.0,-100.00,SSW,197,8.0,18.0,22,0.00,,,0.00,980.000000,,2013-07-11 18:14:00,
2013-07-11 12:23:00,88.0,44.0,-100.00,SSW,197,8.0,18.0,22,0.00,,,0.00,980.000000,,2013-07-11 18:23:00,
2013-07-11 12:35:00,88.0,44.0,-100.00,SSW,197,8.0,18.0,22,0.00,,,0.00,980.000000,,2013-07-11 18:35:00,
2013-07-11 12:45:00,88.0,44.0,-100.00,SSW,197,8.0,18.0,22,0.00,,,0.00,980.000000,,2013-07-11 18:45:00,
2013-07-11 13:13:00,88.0,44.0,-100.00,SSW,207,9.0,19.0,22,0.00,,,0.00,607.000000,,2013-07-11 19:13:00,
2013-07-11 13:23:00,88.0,44.0,-100.00,SSW,207,9.0,19.0,22,0.00,,,0.00,607.000000,,2013-07-11 19:23:00,
2013-07-11 13:37:00,88.0,44.0,-100.00,SSW,207,9.0,19.0,22,0.00,,,0.00,607.000000,,2013-07-11 19:37:00,
2013-07-11 13:44:00,88.0,44.0,-100.00,SSW,207,9.0,19.0,22,0.00,,,0.00,607.000000,,2013-07-11 19:44:00,
2013-07-11 14:25:00,89.0,44.0,-100.00,SSW,195,9.0,23.0,21,0.00,,,0.00,911.000000,,2013-07-11 20:25:00,
2013-07-11 14:37:00,89.0,44.0,-100.00,SSW,195,9.0,23.0,21,0.00,,,0.00,911.000000,,2013-07-11 20:37:00,
2013-07-11 14:46:00,89.0,44.0,-100.00,SSW,195,9.0,23.0,21,0.00,,,0.00,911.000000,,2013-07-11 20:46:00,
2013-07-11 15:14:00,90.0,45.0,-100.00,WSW,243,6.0,20.0,21,0.00,,,0.00,1030.000000,,2013-07-11 21:14:00,
2013-07-11 15:23:00,90.0,45.0,-100.00,WSW,243,6.0,20.0,21,0.00,,,0.00,1030.000000,,2013-07-11 21:23:00,
2013-07-11 15:44:00,90.0,45.0,-100.00,WSW,243,6.0,20.0,21,0.00,,,0.00,1030.000000,,2013-07-11 21:44:00,
2013-07-11 16:15:00,93.0,43.0,-100.00,West,278,8.0,23.0,18,0.00,,,0.00,770.000000,,2013-07-11 22:15:00,
2013-07-11 16:33:00,93.0,43.0,-100.00,West,278,8.0,23.0,18,0.00,,,0.00,770.000000,,2013-07-11 22:33:00,
2013-07-11 16:45:00,93.0,43.0,-100.00,West,278,8.0,23.0,18,0.00,,,0.00,770.000000,,2013-07-11 22:45:00,
2013-07-11 17:13:00,93.0,42.0,-100.00,WNW,290,9.0,19.0,17,0.00,,,0.00,963.000000,,2013-07-11 23:13:00,
2013-07-11 17:35:00,93.0,42.0,-100.00,WNW,290,9.0,19.0,17,0.00,,,0.00,963.000000,,2013-07-11 23:35:00,
2013-07-11 17:46:00,93.0,42.0,-100.00,WNW,290,9.0,19.0,17,0.00,,,0.00,963.000000,,2013-07-11 23:46:00,
2013-07-11 18:24:00,85.0,42.0,-100.00,West,273,13.0,24.0,22,0.00,,,0.00,379.000000,,2013-07-12 00:24:00,
2013-07-11 18:43:00,85.0,42.0,-100.00,West,273,13.0,24.0,22,0.00,,,0.00,379.000000,,2013-07-12 00:43:00,
2013-07-11 19:13:00,76.0,48.0,-100.00,West,270,14.0,24.0,37,0.00,,,0.00,106.000000,,2013-07-12 01:13:00,
2013-07-11 19:26:00,76.0,48.0,-100.00,West,270,14.0,24.0,37,0.00,,,0.00,106.000000,,2013-07-12 01:26:00,
2013-07-11 19:45:00,76.0,48.0,-100.00,West,270,14.0,24.0,37,0.00,,,0.00,106.000000,,2013-07-12 01:45:00,
2013-07-11 20:15:00,64.0,57.0,-100.00,WSW,247,12.0,31.0,77,0.02,,,0.02,21.000000,,2013-07-12 02:15:00,
2013-07-11 20:24:00,64.0,57.0,-100.00,WSW,247,12.0,31.0,77,0.02,,,0.02,21.000000,,2013-07-12 02:24:00,
2013-07-11 20:35:00,64.0,57.0,-100.00,WSW,247,12.0,31.0,77,0.02,,,0.02,21.000000,,2013-07-12 02:35:00,
2013-07-11 20:44:00,64.0,57.0,-100.00,WSW,247,12.0,31.0,77,0.02,,,0.02,21.000000,,2013-07-12 02:44:00,
2013-07-11 21:14:00,64.0,57.0,-100.00,SE,130,7.0,12.0,79,0.00,,,0.02,7.000000,,2013-07-12 03:14:00,
2013-07-11 21:43:00,64.0,57.0,-100.00,SE,130,7.0,12.0,79,0.00,,,0.02,7.000000,,2013-07-12 03:43:00,
2013-07-11 22:11:00,62.0,57.0,-100.00,SSE,168,5.0,11.0,85,0.02,,,0.04,0.000000,,2013-07-12 04:11:00,
2013-07-11 22:22:00,62.0,57.0,-100.00,SSE,168,5.0,11.0,85,0.02,,,0.04,0.000000,,2013-07-12 04:22:00,
2013-07-11 22:32:00,62.0,57.0,-100.00,SSE,168,5.0,11.0,85,0.02,,,0.04,0.000000,,2013-07-12 04:32:00,
2013-07-11 22:43:00,62.0,57.0,-100.00,SSE,168,5.0,11.0,85,0.02,,,0.04,0.000000,,2013-07-12 04:43:00,
2013-07-11 23:11:00,63.0,56.0,-100.00,SSE,148,5.0,10.0,79,0.00,,,0.04,0.000000,,2013-07-12 05:11:00,
2013-07-11 23:22:00,63.0,56.0,-100.00,SSE,148,5.0,10.0,79,0.00,,,0.04,0.000000,,2013-07-12 05:22:00,
2013-07-11 23:32:00,63.0,56.0,-100.00,SSE,148,5.0,10.0,79,0.00,,,0.04,0.000000,,2013-07-12 05:32:00,
2013-07-11 23:43:00,63.0,56.0,-100.00,SSE,148,5.0,10.0,79,0.00,,,0.04,0.000000,,2013-07-12 05:43:00,